createdAt,value
2019-05-13T00:03:13.745Z,1.70
2019-05-13T00:08:09.605Z,1.93
2019-05-13T00:13:05.303Z,1.93
2019-05-13T00:18:01.007Z,1.50
2019-05-13T00:22:56.730Z,1.90
2019-05-13T00:27:53.698Z,1.87
2019-05-13T00:32:49.571Z,2.40
2019-05-13T00:37:45.314Z,2.03
2019-05-13T00:42:41.121Z,2.13
2019-05-13T00:47:36.828Z,1.93
2019-05-13T00:52:33.918Z,2.43
2019-05-13T00:57:29.829Z,2.00
2019-05-13T01:02:25.543Z,2.00
2019-05-13T01:07:25.962Z,2.20
2019-05-13T01:12:18.842Z,1.70
2019-05-13T01:17:14.541Z,2.00
2019-05-13T01:22:10.261Z,2.13
2019-05-13T01:27:05.987Z,2.10
2019-05-13T01:32:04.266Z,2.10
2019-05-13T01:36:59.286Z,2.30
2019-05-13T01:41:55.013Z,2.23
2019-05-13T01:46:50.998Z,1.90
2019-05-13T01:51:46.890Z,2.17
2019-05-13T01:56:44.148Z,2.30
2019-05-13T02:01:39.991Z,2.20
2019-05-13T02:06:35.713Z,2.00
2019-05-13T02:11:34.000Z,2.13
2019-05-13T02:16:29.028Z,2.10
2019-05-13T02:21:24.736Z,2.10
2019-05-13T02:26:20.459Z,2.17
2019-05-13T02:31:22.539Z,2.40
2019-05-13T02:36:13.918Z,2.33
2019-05-13T02:41:13.120Z,2.50
2019-05-13T02:46:07.286Z,2.33
2019-05-13T02:51:03.929Z,2.43
2019-05-13T02:56:02.519Z,2.27
2019-05-13T03:00:57.659Z,2.27
2019-05-13T03:05:53.786Z,2.93
2019-05-13T03:10:52.700Z,2.27
2019-05-13T03:15:52.171Z,2.90
2019-05-13T03:20:46.860Z,2.57
2019-05-13T03:25:43.123Z,2.67
2019-05-13T03:30:38.988Z,2.73
2019-05-13T03:35:36.539Z,2.60
2019-05-13T03:40:33.020Z,2.90
2019-05-13T03:45:32.485Z,2.90
2019-05-13T03:50:30.685Z,3.03
2019-05-13T03:55:25.342Z,3.13
2019-05-13T04:00:23.516Z,3.43
2019-05-13T04:05:22.434Z,2.80
2019-05-13T04:10:16.640Z,2.80
2019-05-13T04:15:12.920Z,2.90
2019-05-13T04:20:12.353Z,2.80
2019-05-13T04:25:06.623Z,2.40
2019-05-13T04:30:03.876Z,3.03
2019-05-13T04:35:03.435Z,2.93
2019-05-13T04:39:57.919Z,2.60
2019-05-13T04:44:53.835Z,2.80
2019-05-13T04:49:53.196Z,2.90
2019-05-13T04:54:47.234Z,2.83
2019-05-13T04:59:44.521Z,2.80
2019-05-13T05:04:43.560Z,2.80
2019-05-13T05:10:11.641Z,2.60
2019-05-13T05:14:52.716Z,2.47
2019-05-13T05:20:03.857Z,2.70
2019-05-13T05:25:11.670Z,3.13
2019-05-13T05:30:11.348Z,2.90
2019-05-13T05:35:24.468Z,2.10
2019-05-13T05:40:30.507Z,2.30
2019-05-13T05:45:19.084Z,2.33
2019-05-13T05:50:14.822Z,2.33
2019-05-13T05:55:11.322Z,2.20
2019-05-13T06:00:07.610Z,2.30
2019-05-13T06:05:04.109Z,2.10
2019-05-13T06:10:02.037Z,1.90
2019-05-13T06:14:57.610Z,2.23
2019-05-13T06:19:53.430Z,1.93
2019-05-13T06:24:49.170Z,2.00
2019-05-13T06:29:48.858Z,1.67
2019-05-13T06:34:43.239Z,1.67
2019-05-13T06:39:38.938Z,2.00
2019-05-13T06:44:34.629Z,1.87
2019-05-13T06:49:32.215Z,2.00
2019-05-13T06:54:27.938Z,1.60
2019-05-13T06:59:23.665Z,1.77
2019-05-13T07:04:21.714Z,1.80
2019-05-13T07:09:16.958Z,2.30
2019-05-13T07:14:12.932Z,1.80
2019-05-13T07:19:08.758Z,1.70
2019-05-13T07:24:04.456Z,2.03
2019-05-13T07:29:03.318Z,1.87
2019-05-13T07:33:57.836Z,1.67
2019-05-13T07:38:53.651Z,2.00
2019-05-13T07:43:51.603Z,1.87
2019-05-13T07:48:46.985Z,1.90
2019-05-13T07:53:42.799Z,1.77
2019-05-13T07:58:38.755Z,1.80
2019-05-13T08:03:34.477Z,1.80
2019-05-13T08:08:32.358Z,1.80
2019-05-13T08:13:27.797Z,2.13
2019-05-13T08:18:23.769Z,1.87
2019-05-13T08:23:21.750Z,1.90
2019-05-13T08:28:17.421Z,2.30
2019-05-13T08:33:13.402Z,2.07
2019-05-13T08:38:11.863Z,1.87
2019-05-13T08:43:07.066Z,2.03
2019-05-13T08:48:02.877Z,1.82
2019-05-13T08:52:58.593Z,1.95
2019-05-13T08:57:55.215Z,1.60
2019-05-13T09:02:52.250Z,1.67
2019-05-13T09:07:48.020Z,1.85
2019-05-13T09:12:43.728Z,1.65
2019-05-13T09:17:39.505Z,2.00
2019-05-13T09:22:35.294Z,1.67
2019-05-13T09:27:31.847Z,2.02
2019-05-13T09:32:28.151Z,1.80
2019-05-13T09:37:23.863Z,1.87
2019-05-13T09:42:21.642Z,2.02
2019-05-13T09:47:17.287Z,2.30
2019-05-13T09:52:13.199Z,1.67
2019-05-13T09:57:08.998Z,1.95
2019-05-13T10:02:04.717Z,2.02
2019-05-13T10:07:02.121Z,1.98
2019-05-13T10:11:58.234Z,1.57
2019-05-13T10:16:54.065Z,1.70
2019-05-13T10:21:52.314Z,2.40
2019-05-13T10:26:48.037Z,2.12
2019-05-13T10:31:44.138Z,1.82
2019-05-13T10:36:42.116Z,2.00
2019-05-13T10:41:37.572Z,1.87
2019-05-13T10:46:33.558Z,2.10
2019-05-13T10:51:32.483Z,2.17
2019-05-13T10:56:27.324Z,2.12
2019-05-13T11:01:23.106Z,1.80
2019-05-13T11:06:21.710Z,1.87
2019-05-13T11:11:16.790Z,2.30
2019-05-13T11:16:12.509Z,1.82
2019-05-13T11:21:08.414Z,2.58
2019-05-13T11:26:04.129Z,2.35
2019-05-13T11:31:02.424Z,2.00
2019-05-13T11:35:57.427Z,1.87
2019-05-13T11:40:53.399Z,1.60
2019-05-13T11:45:49.125Z,1.90
2019-05-13T11:50:50.433Z,1.80
2019-05-13T11:55:44.292Z,1.52
2019-05-13T12:00:47.180Z,1.60
2019-05-13T12:05:43.494Z,1.77
2019-05-13T12:10:43.759Z,1.60
2019-05-13T12:15:45.928Z,1.85
2019-05-13T12:20:34.787Z,1.45
2019-05-13T12:25:33.509Z,1.72
2019-05-13T12:30:28.347Z,1.57
2019-05-13T12:35:24.059Z,1.50
2019-05-13T12:40:22.793Z,1.75
2019-05-13T12:45:17.760Z,1.80
2019-05-13T12:50:14.096Z,1.67
2019-05-13T12:55:13.795Z,1.45
2019-05-13T13:00:08.387Z,1.77
2019-05-13T13:05:10.814Z,1.80
2019-05-13T13:10:02.476Z,2.00
2019-05-13T13:14:58.183Z,2.02
2019-05-13T13:20:04.364Z,2.00
2019-05-13T13:24:57.132Z,1.80
2019-05-13T13:29:58.945Z,1.80
2019-05-13T13:34:47.527Z,1.77
2019-05-13T13:39:43.640Z,1.67
2019-05-13T13:44:42.696Z,1.70
2019-05-13T13:49:37.763Z,1.72
2019-05-13T13:54:33.926Z,1.40
2019-05-13T13:59:35.593Z,1.57
2019-05-13T14:04:27.313Z,1.60
2019-05-13T14:09:23.023Z,1.57
2019-05-13T14:14:20.847Z,1.62
2019-05-13T14:19:16.595Z,1.70
2019-05-13T14:24:12.656Z,1.60
2019-05-13T14:29:08.688Z,1.70
2019-05-13T14:34:04.508Z,2.00
2019-05-13T14:39:02.593Z,1.60
2019-05-13T14:43:57.830Z,1.67
2019-05-13T14:48:54.315Z,1.67
2019-05-13T14:53:51.970Z,1.60
2019-05-13T14:58:47.669Z,1.75
2019-05-13T15:03:43.395Z,1.90
2019-05-13T15:08:41.962Z,1.85
2019-05-13T15:13:36.877Z,1.98
2019-05-13T15:18:33.193Z,1.70
2019-05-13T15:23:31.563Z,1.98
2019-05-13T15:28:27.021Z,1.85
2019-05-13T15:33:22.761Z,1.85
2019-05-13T15:38:18.757Z,1.82
2019-05-13T15:43:14.487Z,1.50
2019-05-13T15:48:11.572Z,1.85
2019-05-13T15:53:07.496Z,1.62
2019-05-13T15:58:03.306Z,1.70
2019-05-13T16:03:01.467Z,1.60
2019-05-13T16:07:56.750Z,1.42
2019-05-13T16:12:52.617Z,1.67
2019-05-13T16:17:48.445Z,2.00
2019-05-13T16:22:44.164Z,1.87
2019-05-13T16:27:41.688Z,1.70
2019-05-13T16:32:37.507Z,1.70
2019-05-13T16:37:33.210Z,1.92
2019-05-13T16:42:31.184Z,1.87
2019-05-13T16:47:26.560Z,2.10
2019-05-13T16:52:22.513Z,1.77
2019-05-13T16:57:18.223Z,1.82
2019-05-13T17:02:14.162Z,1.47
2019-05-13T17:07:09.994Z,1.87
2019-05-13T17:12:05.708Z,1.53
2019-05-13T17:17:01.486Z,1.70
2019-05-13T17:21:57.207Z,2.10
2019-05-13T17:26:52.915Z,1.80
2019-05-13T17:31:48.619Z,2.10
2019-05-13T17:36:44.593Z,1.60
2019-05-13T17:41:41.539Z,1.93
2019-05-13T17:46:38.464Z,2.03
2019-05-13T17:51:34.173Z,2.50
2019-05-13T17:56:32.120Z,1.67
2019-05-13T18:01:27.491Z,1.40
2019-05-13T18:06:23.321Z,1.67
2019-05-13T18:11:19.199Z,1.60
2019-05-13T18:16:14.894Z,1.90
2019-05-13T18:21:11.935Z,1.70
2019-05-13T18:26:07.731Z,2.10
2019-05-13T18:31:03.527Z,1.97
2019-05-13T18:36:01.567Z,1.80
2019-05-13T18:40:56.841Z,1.90
2019-05-13T18:45:52.801Z,2.00
2019-05-13T18:50:48.715Z,2.13
2019-05-13T18:55:44.430Z,1.77
2019-05-13T19:00:41.659Z,2.07
2019-05-13T19:05:38.325Z,1.73
2019-05-13T19:10:34.079Z,1.80
2019-05-13T19:15:31.684Z,2.23
2019-05-13T19:20:27.543Z,1.80
2019-05-13T19:25:23.270Z,1.90
2019-05-13T19:30:21.169Z,2.10
2019-05-13T19:35:16.682Z,2.10
2019-05-13T19:40:13.060Z,2.13
2019-05-13T19:45:10.943Z,2.17
2019-05-13T19:50:06.937Z,2.20
2019-05-13T19:55:04.208Z,2.00
2019-05-13T20:00:01.349Z,1.90
2019-05-13T20:04:57.234Z,1.83
2019-05-13T20:09:52.940Z,3.13
2019-05-13T20:14:48.711Z,2.10
2019-05-13T20:19:50.349Z,2.10
2019-05-13T20:24:42.111Z,2.07
2019-05-13T20:29:37.872Z,2.17
2019-05-13T20:34:33.590Z,2.10
2019-05-13T20:39:31.764Z,2.13
2019-05-13T20:44:26.898Z,2.10
2019-05-13T20:49:22.643Z,2.10
2019-05-13T20:54:18.603Z,2.27
2019-05-13T20:59:14.316Z,2.27
2019-05-13T21:04:12.187Z,2.07
2019-05-13T21:09:12.280Z,2.10
2019-05-13T21:14:05.377Z,2.67
2019-05-13T21:19:01.906Z,2.40
2019-05-13T21:23:57.711Z,2.10
2019-05-13T21:28:53.419Z,2.10
2019-05-13T21:33:51.228Z,2.37
2019-05-13T21:38:46.729Z,2.23
2019-05-13T21:43:42.429Z,2.00
2019-05-13T21:48:38.204Z,2.13
2019-05-13T21:53:33.923Z,1.77
2019-05-13T21:58:31.268Z,2.10
2019-05-13T22:03:27.269Z,2.13
2019-05-13T22:08:23.119Z,2.10
2019-05-13T22:13:18.806Z,1.97
2019-05-13T22:18:14.542Z,1.93
2019-05-13T22:23:11.945Z,2.30
2019-05-13T22:28:07.799Z,2.10
2019-05-13T22:33:03.624Z,2.00
2019-05-13T22:38:01.591Z,2.03
2019-05-13T22:42:57.194Z,2.33
2019-05-13T22:47:52.947Z,2.10
2019-05-13T22:52:48.680Z,2.80
2019-05-13T22:57:44.373Z,2.70
2019-05-13T23:02:42.088Z,2.40
2019-05-13T23:07:37.692Z,2.20
2019-05-13T23:12:33.575Z,2.17
2019-05-13T23:17:29.379Z,2.10
2019-05-13T23:22:25.053Z,2.10
2019-05-13T23:27:22.020Z,2.30
2019-05-13T23:32:17.902Z,2.43
2019-05-13T23:37:13.720Z,2.40
2019-05-13T23:42:11.864Z,2.63
2019-05-13T23:47:07.111Z,2.20
2019-05-13T23:52:02.953Z,1.90
2019-05-13T23:57:01.088Z,2.20
